sensor_id;sensor_type;location;lat;lon;timestamp;P1;durP1;ratioP1;P2;durP2;ratioP2
76155;SDS011;64906;51.290;7.348;2022-12-29T00:01:36;42.67;;;23.67;;
76155;SDS011;64906;51.290;7.348;2022-12-29T00:04:03;42.25;;;23.52;;
76155;SDS011;64906;51.290;7.348;2022-12-29T00:06:30;40.50;;;21.85;;
76155;SDS011;64906;51.290;7.348;2022-12-29T00:08:56;40.47;;;22.25;;
76155;SDS011;64906;51.290;7.348;2022-12-29T00:11:26;39.15;;;22.02;;
76155;SDS011;64906;51.290;7.348;2022-12-29T00:13:52;39.17;;;21.60;;
76155;SDS011;64906;51.290;7.348;2022-12-29T00:16:38;34.63;;;21.77;;
76155;SDS011;64906;51.290;7.348;2022-12-29T00:19:06;41.72;;;21.65;;
76155;SDS011;64906;51.290;7.348;2022-12-29T00:21:52;37.17;;;20.30;;
76155;SDS011;64906;51.290;7.348;2022-12-29T00:24:37;39.78;;;21.65;;
76155;SDS011;64906;51.290;7.348;2022-12-29T00:27:21;29.27;;;16.58;;
76155;SDS011;64906;51.290;7.348;2022-12-29T00:30:08;34.25;;;16.48;;
76155;SDS011;64906;51.290;7.348;2022-12-29T00:32:54;34.10;;;17.00;;
76155;SDS011;64906;51.290;7.348;2022-12-29T00:35:57;32.58;;;18.40;;
76155;SDS011;64906;51.290;7.348;2022-12-29T00:38:27;34.28;;;18.15;;
76155;SDS011;64906;51.290;7.348;2022-12-29T00:41:12;26.58;;;13.63;;
76155;SDS011;64906;51.290;7.348;2022-12-29T00:43:57;26.67;;;12.20;;
76155;SDS011;64906;51.290;7.348;2022-12-29T00:46:32;29.67;;;13.10;;
76155;SDS011;64906;51.290;7.348;2022-12-29T00:48:59;28.15;;;12.18;;
76155;SDS011;64906;51.290;7.348;2022-12-29T00:51:44;25.02;;;10.90;;
76155;SDS011;64906;51.290;7.348;2022-12-29T00:54:10;25.85;;;10.55;;
76155;SDS011;64906;51.290;7.348;2022-12-29T00:56:36;30.88;;;11.23;;
76155;SDS011;64906;51.290;7.348;2022-12-29T00:59:03;24.05;;;9.25;;
76155;SDS011;64906;51.290;7.348;2022-12-29T01:01:30;28.42;;;10.10;;
76155;SDS011;64906;51.290;7.348;2022-12-29T01:03:56;29.10;;;9.75;;
76155;SDS011;64906;51.290;7.348;2022-12-29T01:06:22;24.67;;;9.25;;
76155;SDS011;64906;51.290;7.348;2022-12-29T01:08:48;25.33;;;7.93;;
76155;SDS011;64906;51.290;7.348;2022-12-29T01:11:35;20.70;;;8.50;;
76155;SDS011;64906;51.290;7.348;2022-12-29T01:14:01;19.83;;;8.35;;
76155;SDS011;64906;51.290;7.348;2022-12-29T01:16:27;23.80;;;9.13;;
76155;SDS011;64906;51.290;7.348;2022-12-29T01:18:53;20.73;;;8.05;;
76155;SDS011;64906;51.290;7.348;2022-12-29T01:21:18;28.50;;;7.95;;
76155;SDS011;64906;51.290;7.348;2022-12-29T01:23:44;16.85;;;7.50;;
76155;SDS011;64906;51.290;7.348;2022-12-29T01:26:11;19.23;;;8.35;;
76155;SDS011;64906;51.290;7.348;2022-12-29T01:28:38;25.77;;;8.57;;
76155;SDS011;64906;51.290;7.348;2022-12-29T01:31:05;23.38;;;7.90;;
76155;SDS011;64906;51.290;7.348;2022-12-29T01:33:32;23.63;;;7.43;;
76155;SDS011;64906;51.290;7.348;2022-12-29T01:36:01;21.77;;;9.65;;
76155;SDS011;64906;51.290;7.348;2022-12-29T01:38:28;25.83;;;10.35;;
76155;SDS011;64906;51.290;7.348;2022-12-29T01:40:54;19.63;;;8.90;;
76155;SDS011;64906;51.290;7.348;2022-12-29T01:43:20;17.98;;;8.38;;
76155;SDS011;64906;51.290;7.348;2022-12-29T01:45:48;22.73;;;9.13;;
76155;SDS011;64906;51.290;7.348;2022-12-29T01:48:17;27.20;;;8.55;;
76155;SDS011;64906;51.290;7.348;2022-12-29T01:50:52;21.48;;;10.23;;
76155;SDS011;64906;51.290;7.348;2022-12-29T01:53:26;23.58;;;8.80;;
76155;SDS011;64906;51.290;7.348;2022-12-29T01:55:59;24.42;;;9.10;;
76155;SDS011;64906;51.290;7.348;2022-12-29T01:58:30;22.15;;;8.90;;
76155;SDS011;64906;51.290;7.348;2022-12-29T02:01:00;20.35;;;8.32;;
76155;SDS011;64906;51.290;7.348;2022-12-29T02:03:26;21.85;;;9.45;;
76155;SDS011;64906;51.290;7.348;2022-12-29T02:08:47;17.73;;;8.07;;
76155;SDS011;64906;51.290;7.348;2022-12-29T02:11:17;24.10;;;8.13;;
76155;SDS011;64906;51.290;7.348;2022-12-29T02:13:44;20.45;;;7.38;;
76155;SDS011;64906;51.290;7.348;2022-12-29T02:22:08;26.08;;;8.40;;
76155;SDS011;64906;51.290;7.348;2022-12-29T02:30:57;21.85;;;8.23;;
76155;SDS011;64906;51.290;7.348;2022-12-29T02:39:15;19.05;;;7.82;;
76155;SDS011;64906;51.290;7.348;2022-12-29T02:42:03;25.38;;;9.48;;
76155;SDS011;64906;51.290;7.348;2022-12-29T02:48:30;22.50;;;8.52;;
76155;SDS011;64906;51.290;7.348;2022-12-29T02:53:02;18.95;;;8.15;;
76155;SDS011;64906;51.290;7.348;2022-12-29T02:55:32;17.10;;;7.45;;
76155;SDS011;64906;51.290;7.348;2022-12-29T03:11:35;18.65;;;6.40;;
76155;SDS011;64906;51.290;7.348;2022-12-29T03:14:27;27.60;;;6.13;;
76155;SDS011;64906;51.290;7.348;2022-12-29T03:20:01;17.67;;;6.45;;
76155;SDS011;64906;51.290;7.348;2022-12-29T03:22:32;22.30;;;6.90;;
76155;SDS011;64906;51.290;7.348;2022-12-29T03:25:11;23.17;;;7.30;;
76155;SDS011;64906;51.290;7.348;2022-12-29T03:27:44;16.80;;;6.13;;
76155;SDS011;64906;51.290;7.348;2022-12-29T03:30:14;17.42;;;6.22;;
76155;SDS011;64906;51.290;7.348;2022-12-29T03:32:45;21.77;;;6.03;;
76155;SDS011;64906;51.290;7.348;2022-12-29T03:35:16;18.63;;;6.00;;
76155;SDS011;64906;51.290;7.348;2022-12-29T03:40:50;25.80;;;6.03;;
76155;SDS011;64906;51.290;7.348;2022-12-29T03:43:20;26.13;;;5.90;;
76155;SDS011;64906;51.290;7.348;2022-12-29T03:45:46;23.45;;;5.78;;
76155;SDS011;64906;51.290;7.348;2022-12-29T03:48:12;25.73;;;5.78;;
76155;SDS011;64906;51.290;7.348;2022-12-29T03:50:38;25.20;;;5.90;;
76155;SDS011;64906;51.290;7.348;2022-12-29T03:53:04;16.77;;;6.00;;
76155;SDS011;64906;51.290;7.348;2022-12-29T03:55:30;23.88;;;6.05;;
76155;SDS011;64906;51.290;7.348;2022-12-29T03:57:55;23.50;;;6.10;;
76155;SDS011;64906;51.290;7.348;2022-12-29T04:00:21;16.73;;;4.93;;
76155;SDS011;64906;51.290;7.348;2022-12-29T04:02:47;23.55;;;5.63;;
76155;SDS011;64906;51.290;7.348;2022-12-29T04:05:13;22.58;;;5.40;;
76155;SDS011;64906;51.290;7.348;2022-12-29T04:07:39;23.15;;;5.18;;
76155;SDS011;64906;51.290;7.348;2022-12-29T04:10:04;22.55;;;5.90;;
76155;SDS011;64906;51.290;7.348;2022-12-29T04:12:30;21.58;;;6.00;;
76155;SDS011;64906;51.290;7.348;2022-12-29T04:14:56;22.75;;;5.47;;
76155;SDS011;64906;51.290;7.348;2022-12-29T04:17:22;21.23;;;4.93;;
76155;SDS011;64906;51.290;7.348;2022-12-29T04:19:48;25.52;;;5.32;;
76155;SDS011;64906;51.290;7.348;2022-12-29T04:22:13;27.33;;;5.15;;
76155;SDS011;64906;51.290;7.348;2022-12-29T04:24:39;22.00;;;4.88;;
76155;SDS011;64906;51.290;7.348;2022-12-29T04:27:05;20.77;;;4.93;;
76155;SDS011;64906;51.290;7.348;2022-12-29T04:29:31;28.52;;;5.25;;
76155;SDS011;64906;51.290;7.348;2022-12-29T04:31:56;25.90;;;5.00;;
76155;SDS011;64906;51.290;7.348;2022-12-29T04:34:22;18.15;;;4.43;;
76155;SDS011;64906;51.290;7.348;2022-12-29T04:36:48;21.02;;;4.22;;
76155;SDS011;64906;51.290;7.348;2022-12-29T04:39:14;23.00;;;4.75;;
76155;SDS011;64906;51.290;7.348;2022-12-29T04:41:39;27.05;;;4.95;;
76155;SDS011;64906;51.290;7.348;2022-12-29T04:44:05;32.90;;;5.45;;
76155;SDS011;64906;51.290;7.348;2022-12-29T04:46:31;24.08;;;4.60;;
76155;SDS011;64906;51.290;7.348;2022-12-29T04:48:57;25.98;;;4.78;;
76155;SDS011;64906;51.290;7.348;2022-12-29T04:51:23;21.20;;;4.97;;
76155;SDS011;64906;51.290;7.348;2022-12-29T04:53:49;28.08;;;4.82;;
76155;SDS011;64906;51.290;7.348;2022-12-29T04:56:15;19.33;;;3.90;;
76155;SDS011;64906;51.290;7.348;2022-12-29T04:58:40;25.80;;;4.70;;
76155;SDS011;64906;51.290;7.348;2022-12-29T05:01:06;26.30;;;4.68;;
76155;SDS011;64906;51.290;7.348;2022-12-29T05:03:32;20.33;;;4.43;;
76155;SDS011;64906;51.290;7.348;2022-12-29T05:05:58;22.17;;;4.07;;
76155;SDS011;64906;51.290;7.348;2022-12-29T05:08:24;20.08;;;3.67;;
76155;SDS011;64906;51.290;7.348;2022-12-29T05:10:51;17.10;;;4.35;;
76155;SDS011;64906;51.290;7.348;2022-12-29T05:13:17;19.85;;;3.65;;
76155;SDS011;64906;51.290;7.348;2022-12-29T05:15:49;24.60;;;4.15;;
76155;SDS011;64906;51.290;7.348;2022-12-29T05:18:16;21.73;;;3.70;;
76155;SDS011;64906;51.290;7.348;2022-12-29T05:20:43;13.65;;;3.20;;
76155;SDS011;64906;51.290;7.348;2022-12-29T05:23:09;24.25;;;4.13;;
76155;SDS011;64906;51.290;7.348;2022-12-29T05:25:35;22.08;;;3.88;;
76155;SDS011;64906;51.290;7.348;2022-12-29T05:28:01;22.52;;;3.60;;
76155;SDS011;64906;51.290;7.348;2022-12-29T05:30:27;16.33;;;3.38;;
76155;SDS011;64906;51.290;7.348;2022-12-29T05:32:52;20.10;;;3.70;;
76155;SDS011;64906;51.290;7.348;2022-12-29T05:35:18;30.52;;;3.72;;
76155;SDS011;64906;51.290;7.348;2022-12-29T05:37:44;26.50;;;3.67;;
76155;SDS011;64906;51.290;7.348;2022-12-29T05:40:10;21.08;;;3.55;;
76155;SDS011;64906;51.290;7.348;2022-12-29T05:42:36;25.65;;;3.85;;
76155;SDS011;64906;51.290;7.348;2022-12-29T05:45:02;19.77;;;3.90;;
76155;SDS011;64906;51.290;7.348;2022-12-29T05:47:28;24.55;;;4.53;;
76155;SDS011;64906;51.290;7.348;2022-12-29T05:49:54;28.50;;;5.35;;
76155;SDS011;64906;51.290;7.348;2022-12-29T05:52:20;25.05;;;4.13;;
76155;SDS011;64906;51.290;7.348;2022-12-29T05:54:45;23.73;;;4.07;;
76155;SDS011;64906;51.290;7.348;2022-12-29T05:57:11;24.88;;;3.85;;
76155;SDS011;64906;51.290;7.348;2022-12-29T05:59:37;31.25;;;3.97;;
76155;SDS011;64906;51.290;7.348;2022-12-29T06:02:03;23.83;;;3.90;;
76155;SDS011;64906;51.290;7.348;2022-12-29T06:04:28;22.25;;;3.20;;
76155;SDS011;64906;51.290;7.348;2022-12-29T06:06:54;23.00;;;3.85;;
76155;SDS011;64906;51.290;7.348;2022-12-29T06:09:20;27.17;;;4.20;;
76155;SDS011;64906;51.290;7.348;2022-12-29T06:11:46;28.73;;;3.92;;
76155;SDS011;64906;51.290;7.348;2022-12-29T06:14:11;28.02;;;3.47;;
76155;SDS011;64906;51.290;7.348;2022-12-29T06:16:37;28.90;;;3.17;;
76155;SDS011;64906;51.290;7.348;2022-12-29T06:19:03;18.88;;;3.30;;
76155;SDS011;64906;51.290;7.348;2022-12-29T06:21:29;18.52;;;2.80;;
76155;SDS011;64906;51.290;7.348;2022-12-29T06:23:55;20.42;;;3.55;;
76155;SDS011;64906;51.290;7.348;2022-12-29T06:26:20;24.83;;;3.63;;
76155;SDS011;64906;51.290;7.348;2022-12-29T06:28:46;16.85;;;2.83;;
76155;SDS011;64906;51.290;7.348;2022-12-29T06:31:12;22.13;;;2.97;;
76155;SDS011;64906;51.290;7.348;2022-12-29T06:33:39;20.90;;;3.60;;
76155;SDS011;64906;51.290;7.348;2022-12-29T06:36:05;18.08;;;3.38;;
76155;SDS011;64906;51.290;7.348;2022-12-29T06:38:31;23.92;;;3.38;;
76155;SDS011;64906;51.290;7.348;2022-12-29T06:40:57;30.10;;;3.22;;
76155;SDS011;64906;51.290;7.348;2022-12-29T06:43:22;19.70;;;3.13;;
76155;SDS011;64906;51.290;7.348;2022-12-29T06:45:48;17.63;;;3.15;;
76155;SDS011;64906;51.290;7.348;2022-12-29T06:48:14;27.13;;;3.42;;
76155;SDS011;64906;51.290;7.348;2022-12-29T06:50:40;20.58;;;3.10;;
76155;SDS011;64906;51.290;7.348;2022-12-29T06:53:06;19.02;;;3.03;;
76155;SDS011;64906;51.290;7.348;2022-12-29T06:55:32;22.50;;;3.10;;
76155;SDS011;64906;51.290;7.348;2022-12-29T06:57:58;19.77;;;3.33;;
76155;SDS011;64906;51.290;7.348;2022-12-29T07:00:24;20.55;;;3.20;;
76155;SDS011;64906;51.290;7.348;2022-12-29T07:02:50;21.17;;;2.95;;
76155;SDS011;64906;51.290;7.348;2022-12-29T07:05:17;20.33;;;2.78;;
76155;SDS011;64906;51.290;7.348;2022-12-29T07:07:43;26.25;;;3.50;;
76155;SDS011;64906;51.290;7.348;2022-12-29T07:10:09;19.98;;;3.13;;
76155;SDS011;64906;51.290;7.348;2022-12-29T07:12:35;20.13;;;3.00;;
76155;SDS011;64906;51.290;7.348;2022-12-29T07:15:01;21.13;;;2.70;;
76155;SDS011;64906;51.290;7.348;2022-12-29T07:17:27;19.63;;;3.05;;
76155;SDS011;64906;51.290;7.348;2022-12-29T07:19:52;19.70;;;3.03;;
76155;SDS011;64906;51.290;7.348;2022-12-29T07:22:18;15.65;;;2.58;;
76155;SDS011;64906;51.290;7.348;2022-12-29T07:24:44;18.80;;;2.67;;
76155;SDS011;64906;51.290;7.348;2022-12-29T07:27:10;16.50;;;2.90;;
76155;SDS011;64906;51.290;7.348;2022-12-29T07:29:39;24.90;;;3.10;;
76155;SDS011;64906;51.290;7.348;2022-12-29T07:32:04;19.77;;;2.92;;
76155;SDS011;64906;51.290;7.348;2022-12-29T07:34:30;14.93;;;2.50;;
76155;SDS011;64906;51.290;7.348;2022-12-29T07:36:56;20.38;;;2.88;;
76155;SDS011;64906;51.290;7.348;2022-12-29T07:39:22;13.77;;;3.00;;
76155;SDS011;64906;51.290;7.348;2022-12-29T07:41:48;20.00;;;3.33;;
76155;SDS011;64906;51.290;7.348;2022-12-29T07:44:13;16.63;;;2.97;;
76155;SDS011;64906;51.290;7.348;2022-12-29T07:46:39;13.65;;;2.95;;
76155;SDS011;64906;51.290;7.348;2022-12-29T07:49:05;14.63;;;3.22;;
76155;SDS011;64906;51.290;7.348;2022-12-29T07:51:31;15.43;;;3.45;;
76155;SDS011;64906;51.290;7.348;2022-12-29T07:53:57;20.23;;;3.58;;
76155;SDS011;64906;51.290;7.348;2022-12-29T07:56:25;10.25;;;2.60;;
76155;SDS011;64906;51.290;7.348;2022-12-29T07:58:52;14.48;;;2.85;;
76155;SDS011;64906;51.290;7.348;2022-12-29T08:01:17;17.92;;;3.33;;
76155;SDS011;64906;51.290;7.348;2022-12-29T08:03:44;19.70;;;3.53;;
76155;SDS011;64906;51.290;7.348;2022-12-29T08:06:10;15.25;;;3.20;;
76155;SDS011;64906;51.290;7.348;2022-12-29T08:08:36;15.57;;;3.33;;
76155;SDS011;64906;51.290;7.348;2022-12-29T08:11:02;17.35;;;3.03;;
76155;SDS011;64906;51.290;7.348;2022-12-29T08:13:28;16.77;;;3.67;;
76155;SDS011;64906;51.290;7.348;2022-12-29T08:15:54;20.35;;;3.10;;
76155;SDS011;64906;51.290;7.348;2022-12-29T08:18:19;12.65;;;3.05;;
76155;SDS011;64906;51.290;7.348;2022-12-29T08:20:45;22.00;;;3.63;;
76155;SDS011;64906;51.290;7.348;2022-12-29T08:23:11;14.55;;;3.22;;
76155;SDS011;64906;51.290;7.348;2022-12-29T08:25:36;16.02;;;4.22;;
76155;SDS011;64906;51.290;7.348;2022-12-29T08:28:02;17.95;;;3.40;;
76155;SDS011;64906;51.290;7.348;2022-12-29T08:30:28;20.70;;;3.33;;
76155;SDS011;64906;51.290;7.348;2022-12-29T08:32:54;15.23;;;3.17;;
76155;SDS011;64906;51.290;7.348;2022-12-29T08:35:20;15.23;;;3.25;;
76155;SDS011;64906;51.290;7.348;2022-12-29T08:37:45;19.90;;;3.45;;
76155;SDS011;64906;51.290;7.348;2022-12-29T08:40:17;16.60;;;3.20;;
76155;SDS011;64906;51.290;7.348;2022-12-29T08:42:44;16.23;;;3.58;;
76155;SDS011;64906;51.290;7.348;2022-12-29T08:45:10;16.15;;;3.22;;
76155;SDS011;64906;51.290;7.348;2022-12-29T08:47:36;12.63;;;2.95;;
76155;SDS011;64906;51.290;7.348;2022-12-29T08:50:02;17.70;;;3.20;;
76155;SDS011;64906;51.290;7.348;2022-12-29T08:52:28;12.52;;;2.90;;
76155;SDS011;64906;51.290;7.348;2022-12-29T08:54:54;11.75;;;3.08;;
76155;SDS011;64906;51.290;7.348;2022-12-29T08:57:20;13.30;;;3.08;;
76155;SDS011;64906;51.290;7.348;2022-12-29T08:59:45;13.00;;;2.90;;
76155;SDS011;64906;51.290;7.348;2022-12-29T09:02:11;16.05;;;3.88;;
76155;SDS011;64906;51.290;7.348;2022-12-29T09:04:38;14.65;;;3.00;;
76155;SDS011;64906;51.290;7.348;2022-12-29T09:07:04;12.52;;;3.28;;
76155;SDS011;64906;51.290;7.348;2022-12-29T09:09:30;12.15;;;2.88;;
76155;SDS011;64906;51.290;7.348;2022-12-29T09:11:57;18.95;;;3.50;;
76155;SDS011;64906;51.290;7.348;2022-12-29T09:14:22;13.60;;;3.30;;
76155;SDS011;64906;51.290;7.348;2022-12-29T09:16:50;15.02;;;3.00;;
76155;SDS011;64906;51.290;7.348;2022-12-29T09:19:35;18.17;;;3.42;;
76155;SDS011;64906;51.290;7.348;2022-12-29T09:22:01;15.27;;;3.10;;
76155;SDS011;64906;51.290;7.348;2022-12-29T09:24:27;14.32;;;3.08;;
76155;SDS011;64906;51.290;7.348;2022-12-29T09:26:52;16.30;;;2.92;;
76155;SDS011;64906;51.290;7.348;2022-12-29T09:29:18;16.40;;;2.78;;
76155;SDS011;64906;51.290;7.348;2022-12-29T09:31:44;29.60;;;3.15;;
76155;SDS011;64906;51.290;7.348;2022-12-29T09:34:10;19.95;;;3.63;;
76155;SDS011;64906;51.290;7.348;2022-12-29T09:36:35;20.05;;;2.90;;
76155;SDS011;64906;51.290;7.348;2022-12-29T09:39:01;12.30;;;2.72;;
76155;SDS011;64906;51.290;7.348;2022-12-29T09:41:29;21.85;;;3.45;;
76155;SDS011;64906;51.290;7.348;2022-12-29T09:44:11;16.08;;;2.85;;
76155;SDS011;64906;51.290;7.348;2022-12-29T09:46:46;15.02;;;2.90;;
76155;SDS011;64906;51.290;7.348;2022-12-29T09:52:01;12.93;;;2.67;;
76155;SDS011;64906;51.290;7.348;2022-12-29T09:57:19;16.35;;;2.47;;
76155;SDS011;64906;51.290;7.348;2022-12-29T09:59:54;14.90;;;2.92;;
76155;SDS011;64906;51.290;7.348;2022-12-29T10:02:33;16.60;;;2.72;;
76155;SDS011;64906;51.290;7.348;2022-12-29T10:05:17;14.45;;;2.80;;
76155;SDS011;64906;51.290;7.348;2022-12-29T10:07:45;16.80;;;2.50;;
76155;SDS011;64906;51.290;7.348;2022-12-29T10:10:40;15.98;;;3.20;;
76155;SDS011;64906;51.290;7.348;2022-12-29T10:13:42;18.48;;;2.70;;
76155;SDS011;64906;51.290;7.348;2022-12-29T10:16:40;14.50;;;3.00;;
76155;SDS011;64906;51.290;7.348;2022-12-29T10:19:24;11.57;;;3.08;;
76155;SDS011;64906;51.290;7.348;2022-12-29T10:22:17;16.58;;;3.35;;
76155;SDS011;64906;51.290;7.348;2022-12-29T10:25:02;13.85;;;2.70;;
76155;SDS011;64906;51.290;7.348;2022-12-29T10:27:50;20.33;;;3.00;;
76155;SDS011;64906;51.290;7.348;2022-12-29T10:30:19;18.90;;;3.08;;
76155;SDS011;64906;51.290;7.348;2022-12-29T10:32:49;13.32;;;2.88;;
76155;SDS011;64906;51.290;7.348;2022-12-29T10:35:24;15.60;;;2.50;;
76155;SDS011;64906;51.290;7.348;2022-12-29T10:38:09;16.33;;;2.58;;
76155;SDS011;64906;51.290;7.348;2022-12-29T10:43:50;16.15;;;2.70;;
76155;SDS011;64906;51.290;7.348;2022-12-29T10:46:19;21.23;;;2.45;;
76155;SDS011;64906;51.290;7.348;2022-12-29T10:48:52;17.17;;;2.63;;
76155;SDS011;64906;51.290;7.348;2022-12-29T10:51:31;20.42;;;2.70;;
76155;SDS011;64906;51.290;7.348;2022-12-29T10:59:56;23.35;;;2.53;;
76155;SDS011;64906;51.290;7.348;2022-12-29T11:02:38;15.18;;;2.63;;
76155;SDS011;64906;51.290;7.348;2022-12-29T11:05:19;13.23;;;2.17;;
76155;SDS011;64906;51.290;7.348;2022-12-29T11:07:58;18.70;;;2.20;;
76155;SDS011;64906;51.290;7.348;2022-12-29T11:13:33;16.55;;;2.40;;
76155;SDS011;64906;51.290;7.348;2022-12-29T11:15:51;16.95;;;2.47;;
76155;SDS011;64906;51.290;7.348;2022-12-29T11:18:22;15.95;;;2.60;;
76155;SDS011;64906;51.290;7.348;2022-12-29T11:20:51;12.55;;;2.17;;
76155;SDS011;64906;51.290;7.348;2022-12-29T11:28:42;17.60;;;2.22;;
76155;SDS011;64906;51.290;7.348;2022-12-29T11:31:12;22.30;;;2.53;;
76155;SDS011;64906;51.290;7.348;2022-12-29T11:33:41;15.07;;;2.13;;
76155;SDS011;64906;51.290;7.348;2022-12-29T11:36:15;13.45;;;2.33;;
76155;SDS011;64906;51.290;7.348;2022-12-29T11:38:48;17.58;;;2.58;;
76155;SDS011;64906;51.290;7.348;2022-12-29T11:41:24;12.65;;;2.30;;
76155;SDS011;64906;51.290;7.348;2022-12-29T11:43:53;14.00;;;2.40;;
76155;SDS011;64906;51.290;7.348;2022-12-29T11:46:25;16.73;;;2.40;;
76155;SDS011;64906;51.290;7.348;2022-12-29T11:48:54;14.40;;;2.38;;
76155;SDS011;64906;51.290;7.348;2022-12-29T11:51:28;14.13;;;2.30;;
76155;SDS011;64906;51.290;7.348;2022-12-29T11:54:00;18.17;;;2.83;;
76155;SDS011;64906;51.290;7.348;2022-12-29T11:56:39;17.73;;;3.03;;
76155;SDS011;64906;51.290;7.348;2022-12-29T11:59:35;13.82;;;2.33;;
76155;SDS011;64906;51.290;7.348;2022-12-29T12:04:49;22.55;;;8.65;;
76155;SDS011;64906;51.290;7.348;2022-12-29T12:07:24;26.17;;;13.45;;
76155;SDS011;64906;51.290;7.348;2022-12-29T12:10:05;37.95;;;20.45;;
76155;SDS011;64906;51.290;7.348;2022-12-29T12:15:26;55.58;;;28.65;;
76155;SDS011;64906;51.290;7.348;2022-12-29T12:18:17;53.97;;;30.58;;
76155;SDS011;64906;51.290;7.348;2022-12-29T12:20:57;35.17;;;18.02;;
76155;SDS011;64906;51.290;7.348;2022-12-29T12:23:42;44.22;;;20.70;;
76155;SDS011;64906;51.290;7.348;2022-12-29T12:26:22;35.50;;;19.23;;
76155;SDS011;64906;51.290;7.348;2022-12-29T12:29:04;40.67;;;17.70;;
76155;SDS011;64906;51.290;7.348;2022-12-29T12:31:42;45.05;;;20.15;;
76155;SDS011;64906;51.290;7.348;2022-12-29T12:34:16;41.00;;;18.63;;
76155;SDS011;64906;51.290;7.348;2022-12-29T12:39:26;41.22;;;19.95;;
76155;SDS011;64906;51.290;7.348;2022-12-29T12:42:06;38.70;;;17.17;;
76155;SDS011;64906;51.290;7.348;2022-12-29T12:45:01;34.90;;;16.77;;
76155;SDS011;64906;51.290;7.348;2022-12-29T12:58:24;45.63;;;20.42;;
76155;SDS011;64906;51.290;7.348;2022-12-29T13:17:56;63.75;;;17.15;;
76155;SDS011;64906;51.290;7.348;2022-12-29T13:20:34;67.85;;;19.15;;
76155;SDS011;64906;51.290;7.348;2022-12-29T13:23:05;64.03;;;17.83;;
76155;SDS011;64906;51.290;7.348;2022-12-29T13:28:53;196.20;;;33.83;;
76155;SDS011;64906;51.290;7.348;2022-12-29T13:37:04;179.93;;;32.25;;
76155;SDS011;64906;51.290;7.348;2022-12-29T13:39:40;141.30;;;29.98;;
76155;SDS011;64906;51.290;7.348;2022-12-29T13:42:17;151.32;;;28.95;;
76155;SDS011;64906;51.290;7.348;2022-12-29T13:44:53;122.53;;;26.10;;
76155;SDS011;64906;51.290;7.348;2022-12-29T13:47:33;126.63;;;27.48;;
76155;SDS011;64906;51.290;7.348;2022-12-29T13:50:14;96.65;;;23.17;;
76155;SDS011;64906;51.290;7.348;2022-12-29T13:52:45;97.50;;;20.85;;
76155;SDS011;64906;51.290;7.348;2022-12-29T13:58:06;81.22;;;18.42;;
76155;SDS011;64906;51.290;7.348;2022-12-29T14:03:53;69.97;;;17.55;;
76155;SDS011;64906;51.290;7.348;2022-12-29T14:08:48;74.15;;;15.18;;
76155;SDS011;64906;51.290;7.348;2022-12-29T14:11:15;56.67;;;13.75;;
76155;SDS011;64906;51.290;7.348;2022-12-29T14:13:43;56.00;;;13.38;;
76155;SDS011;64906;51.290;7.348;2022-12-29T14:16:22;59.05;;;11.32;;
76155;SDS011;64906;51.290;7.348;2022-12-29T14:18:51;40.35;;;9.38;;
76155;SDS011;64906;51.290;7.348;2022-12-29T14:21:20;46.22;;;8.60;;
76155;SDS011;64906;51.290;7.348;2022-12-29T14:23:51;40.47;;;8.40;;
76155;SDS011;64906;51.290;7.348;2022-12-29T14:28:53;36.10;;;7.53;;
76155;SDS011;64906;51.290;7.348;2022-12-29T14:36:36;29.92;;;6.63;;
76155;SDS011;64906;51.290;7.348;2022-12-29T14:39:37;32.00;;;6.82;;
76155;SDS011;64906;51.290;7.348;2022-12-29T14:42:06;32.45;;;8.02;;
76155;SDS011;64906;51.290;7.348;2022-12-29T14:44:50;27.65;;;6.53;;
76155;SDS011;64906;51.290;7.348;2022-12-29T14:47:31;31.90;;;6.25;;
76155;SDS011;64906;51.290;7.348;2022-12-29T14:50:04;30.08;;;6.55;;
76155;SDS011;64906;51.290;7.348;2022-12-29T14:52:33;26.42;;;5.50;;
76155;SDS011;64906;51.290;7.348;2022-12-29T14:58:05;24.13;;;5.78;;
76155;SDS011;64906;51.290;7.348;2022-12-29T15:00:45;31.88;;;5.60;;
76155;SDS011;64906;51.290;7.348;2022-12-29T15:08:27;24.25;;;4.55;;
76155;SDS011;64906;51.290;7.348;2022-12-29T15:10:58;23.08;;;4.85;;
76155;SDS011;64906;51.290;7.348;2022-12-29T15:13:35;17.40;;;4.47;;
76155;SDS011;64906;51.290;7.348;2022-12-29T15:16:52;20.17;;;4.45;;
76155;SDS011;64906;51.290;7.348;2022-12-29T15:18:56;21.95;;;4.50;;
76155;SDS011;64906;51.290;7.348;2022-12-29T15:21:25;26.65;;;4.50;;
76155;SDS011;64906;51.290;7.348;2022-12-29T15:23:54;23.67;;;4.72;;
76155;SDS011;64906;51.290;7.348;2022-12-29T15:26:20;19.42;;;3.95;;
76155;SDS011;64906;51.290;7.348;2022-12-29T15:28:51;23.88;;;4.68;;
76155;SDS011;64906;51.290;7.348;2022-12-29T15:31:19;24.38;;;3.80;;
76155;SDS011;64906;51.290;7.348;2022-12-29T15:33:47;27.40;;;4.78;;
76155;SDS011;64906;51.290;7.348;2022-12-29T15:36:27;34.10;;;5.05;;
76155;SDS011;64906;51.290;7.348;2022-12-29T15:38:54;32.03;;;5.10;;
76155;SDS011;64906;51.290;7.348;2022-12-29T15:46:19;29.83;;;5.57;;
76155;SDS011;64906;51.290;7.348;2022-12-29T15:48:45;30.27;;;5.13;;
76155;SDS011;64906;51.290;7.348;2022-12-29T15:51:15;23.45;;;5.38;;
76155;SDS011;64906;51.290;7.348;2022-12-29T15:53:46;31.95;;;4.85;;
76155;SDS011;64906;51.290;7.348;2022-12-29T15:56:14;31.13;;;5.38;;
76155;SDS011;64906;51.290;7.348;2022-12-29T15:58:44;28.90;;;4.43;;
76155;SDS011;64906;51.290;7.348;2022-12-29T16:01:19;29.10;;;5.57;;
76155;SDS011;64906;51.290;7.348;2022-12-29T16:03:49;25.75;;;4.22;;
76155;SDS011;64906;51.290;7.348;2022-12-29T16:06:27;27.70;;;4.55;;
76155;SDS011;64906;51.290;7.348;2022-12-29T16:09:04;29.15;;;5.07;;
76155;SDS011;64906;51.290;7.348;2022-12-29T16:11:55;24.35;;;3.58;;
76155;SDS011;64906;51.290;7.348;2022-12-29T16:14:27;35.40;;;6.10;;
76155;SDS011;64906;51.290;7.348;2022-12-29T16:17:13;18.52;;;3.53;;
76155;SDS011;64906;51.290;7.348;2022-12-29T16:19:51;28.83;;;3.13;;
76155;SDS011;64906;51.290;7.348;2022-12-29T16:22:30;34.53;;;6.47;;
76155;SDS011;64906;51.290;7.348;2022-12-29T16:25:03;37.65;;;4.70;;
76155;SDS011;64906;51.290;7.348;2022-12-29T16:27:36;35.75;;;4.13;;
76155;SDS011;64906;51.290;7.348;2022-12-29T16:30:07;24.52;;;3.65;;
76155;SDS011;64906;51.290;7.348;2022-12-29T16:32:47;28.15;;;3.58;;
76155;SDS011;64906;51.290;7.348;2022-12-29T16:37:48;25.23;;;3.65;;
76155;SDS011;64906;51.290;7.348;2022-12-29T16:40:37;28.92;;;5.70;;
76155;SDS011;64906;51.290;7.348;2022-12-29T16:43:19;47.17;;;18.48;;
76155;SDS011;64906;51.290;7.348;2022-12-29T16:51:44;71.72;;;25.85;;
76155;SDS011;64906;51.290;7.348;2022-12-29T16:53:53;77.45;;;25.30;;
76155;SDS011;64906;51.290;7.348;2022-12-29T16:56:21;80.03;;;25.50;;
76155;SDS011;64906;51.290;7.348;2022-12-29T16:58:58;86.95;;;26.23;;
76155;SDS011;64906;51.290;7.348;2022-12-29T17:01:37;74.15;;;25.75;;
76155;SDS011;64906;51.290;7.348;2022-12-29T17:04:05;79.85;;;29.52;;
76155;SDS011;64906;51.290;7.348;2022-12-29T17:06:34;71.38;;;32.85;;
76155;SDS011;64906;51.290;7.348;2022-12-29T17:08:59;60.90;;;29.40;;
76155;SDS011;64906;51.290;7.348;2022-12-29T17:11:27;75.03;;;25.45;;
76155;SDS011;64906;51.290;7.348;2022-12-29T17:17:08;66.65;;;28.55;;
76155;SDS011;64906;51.290;7.348;2022-12-29T17:19:42;81.32;;;30.05;;
76155;SDS011;64906;51.290;7.348;2022-12-29T17:22:15;67.18;;;31.77;;
76155;SDS011;64906;51.290;7.348;2022-12-29T17:24:44;77.55;;;33.17;;
76155;SDS011;64906;51.290;7.348;2022-12-29T17:27:16;60.50;;;31.85;;